Time;durP1;ratioP1;P1;durP2;ratioP2;P2;SDS_P1;SDS_P2;PMS_P1;PMS_P2;Temp;Humidity;BMP_temperature;BMP_pressure;BME280_temperature;BME280_humidity;BME280_pressure;Samples;Min_cycle;Max_cycle;Signal;HPM_P1;HPM_P2
2021/03/14 00:01:00;;;;;;;;;2.00;0.50;;;;;13.26;43.37;97016.16;4861692;28;109103;-87
2021/03/14 00:03:28;;;;;;;;;1.00;0.00;;;;;13.26;43.49;97001.75;4881800;28;102760;-87
2021/03/14 00:05:55;;;;;;;;;1.00;1.00;;;;;13.27;43.16;97009.66;4869040;28;102693;-87
2021/03/14 00:08:26;;;;;;;;;0.25;0.00;;;;;13.26;43.38;96999.88;4859549;28;104405;-87
2021/03/14 00:10:59;;;;;;;;;1.50;1.50;;;;;13.22;43.14;96979.75;4872359;28;104009;-87
2021/03/14 00:13:43;;;;;;;;;0.50;0.50;;;;;13.25;42.68;96989.25;4868791;28;102976;-87
2021/03/14 00:16:11;;;;;;;;;1.00;1.00;;;;;13.25;43.43;96984.66;4791431;28;102988;-87
2021/03/14 00:18:40;;;;;;;;;1.00;1.00;;;;;13.25;42.70;96981.94;4851281;28;104971;-87
2021/03/14 00:21:07;;;;;;;;;1.00;1.00;;;;;13.25;42.51;96986.53;4864787;28;103854;-87
2021/03/14 00:23:34;;;;;;;;;2.00;1.00;;;;;13.23;42.88;96981.38;4861521;28;102784;-86
2021/03/14 00:26:01;;;;;;;;;1.50;0.75;;;;;13.22;42.96;96971.59;4880652;28;102849;-87
2021/03/14 00:28:28;;;;;;;;;3.25;1.00;;;;;13.23;43.51;96972.44;4854929;28;102927;-87
2021/03/14 00:30:54;;;;;;;;;1.00;1.00;;;;;13.20;43.00;96973.75;4861423;28;103696;-87
2021/03/14 00:33:21;;;;;;;;;1.00;1.00;;;;;13.19;42.65;96972.09;4866096;28;104661;-87
2021/03/14 00:35:48;;;;;;;;;1.25;1.00;;;;;13.21;43.56;96978.09;4865399;28;103097;-87
2021/03/14 00:38:15;;;;;;;;;0.75;0.00;;;;;13.19;43.11;96993.81;4868101;28;102977;-87
2021/03/14 00:40:42;;;;;;;;;1.00;1.00;;;;;13.20;43.05;96994.63;4866739;28;103958;-87
2021/03/14 00:43:12;;;;;;;;;0.50;0.25;;;;;13.18;43.03;96991.38;4862786;28;102942;-87
2021/03/14 00:45:39;;;;;;;;;0.75;0.75;;;;;13.16;43.77;96999.75;4867698;28;102967;-87
2021/03/14 00:48:22;;;;;;;;;0.50;0.50;;;;;13.16;42.96;96999.75;4870258;28;102728;-87
2021/03/14 00:50:50;;;;;;;;;1.25;1.00;;;;;13.18;43.55;97003.06;4859831;28;104332;-87
2021/03/14 00:53:16;;;;;;;;;1.00;0.75;;;;;13.18;43.04;97002.22;4859418;28;102906;-87
2021/03/14 00:55:43;;;;;;;;;1.00;1.00;;;;;13.17;42.83;97006.84;4869868;28;102834;-87
2021/03/14 00:58:11;;;;;;;;;1.50;1.00;;;;;13.17;43.30;97001.41;4854892;28;102496;-87
2021/03/14 01:00:37;;;;;;;;;1.00;1.00;;;;;13.16;43.46;96999.75;4848918;28;105071;-87
2021/03/14 01:03:05;;;;;;;;;0.50;0.50;;;;;13.15;42.85;97014.41;4853961;28;102763;-87
2021/03/14 01:05:32;;;;;;;;;1.00;0.00;;;;;13.15;43.36;97013.59;4841590;28;102965;-87
2021/03/14 01:07:59;;;;;;;;;1.00;0.75;;;;;13.14;43.80;97020.94;4856482;28;103020;-87
2021/03/14 01:10:26;;;;;;;;;1.00;1.00;;;;;13.13;43.77;97016.56;4856173;28;104554;-87
2021/03/14 01:12:52;;;;;;;;;2.00;1.00;;;;;13.12;43.11;97025.78;4853562;28;103469;-87
2021/03/14 01:15:19;;;;;;;;;0.25;0.25;;;;;13.12;42.77;97012.19;4859041;28;102774;-87
2021/03/14 01:17:46;;;;;;;;;1.50;1.00;;;;;13.12;43.51;97020.34;4840239;28;103033;-87
2021/03/14 01:20:16;;;;;;;;;1.25;1.25;;;;;13.13;42.97;97021.16;4852788;28;104097;-87
2021/03/14 01:22:43;;;;;;;;;0.00;0.00;;;;;13.12;43.67;97016.81;4862939;28;102749;-87
2021/03/14 01:25:10;;;;;;;;;0.00;0.00;;;;;13.10;43.35;97014.34;4860578;28;102938;-87
2021/03/14 01:27:37;;;;;;;;;0.25;0.25;;;;;13.10;43.64;97027.09;4852971;28;102975;-87
2021/03/14 01:30:06;;;;;;;;;1.75;1.00;;;;;13.08;43.12;97021.91;4873486;28;104060;-87
2021/03/14 01:32:33;;;;;;;;;1.00;0.00;;;;;13.10;43.07;97038.75;4854396;28;102665;-87
2021/03/14 01:35:00;;;;;;;;;1.00;1.00;;;;;13.08;43.51;97038.19;4854754;28;102888;-87
2021/03/14 01:37:27;;;;;;;;;1.00;0.00;;;;;13.08;43.62;97035.47;4868901;28;103009;-87
2021/03/14 01:39:53;;;;;;;;;0.00;0.00;;;;;13.07;43.45;97024.88;4847208;28;104260;-87
2021/03/14 01:42:25;;;;;;;;;0.75;0.00;;;;;13.07;43.58;97033.81;4871438;28;102644;-87
2021/03/14 01:44:51;;;;;;;;;1.75;1.00;;;;;13.08;42.97;97021.09;4870291;28;102855;-87
2021/03/14 01:47:19;;;;;;;;;0.75;0.75;;;;;13.06;43.00;97013.19;4857617;28;102729;-87
2021/03/14 01:49:46;;;;;;;;;0.75;0.00;;;;;13.04;43.19;97007.22;4865647;28;104719;-87
2021/03/14 01:52:12;;;;;;;;;0.50;0.50;;;;;13.05;43.25;97005.31;4858545;28;102787;-87
2021/03/14 01:54:39;;;;;;;;;1.50;1.00;;;;;13.04;43.28;96990.94;4855992;28;102973;-78
2021/03/14 01:57:06;;;;;;;;;1.00;1.00;;;;;13.03;43.03;96994.72;4849242;28;105050;-78
2021/03/14 01:59:33;;;;;;;;;1.00;0.25;;;;;13.02;43.26;96987.63;4861404;28;104412;-77
2021/03/14 02:01:59;;;;;;;;;0.50;0.50;;;;;13.03;43.78;96991.19;4849525;28;102960;-78
2021/03/14 02:04:26;;;;;;;;;1.00;0.50;;;;;13.04;43.11;96990.94;4838515;28;102666;-78
2021/03/14 02:06:53;;;;;;;;;0.00;0.00;;;;;13.02;43.71;96987.63;4852694;28;102960;-77
2021/03/14 02:09:19;;;;;;;;;0.75;0.00;;;;;12.99;43.79;96985.44;4851054;28;105429;-78
2021/03/14 02:11:46;;;;;;;;;1.00;1.00;;;;;13.02;43.69;96986.81;4864188;28;102768;-78
2021/03/14 02:14:15;;;;;;;;;1.50;0.00;;;;;13.01;43.09;97002.31;4842612;28;102929;-78
2021/03/14 02:16:43;;;;;;;;;2.00;0.00;;;;;13.00;43.78;97000.66;4851849;28;102773;-78
2021/03/14 02:19:17;;;;;;;;;0.00;0.00;;;;;12.99;43.94;97004.44;4854737;28;104086;-77
2021/03/14 02:21:44;;;;;;;;;0.00;0.00;;;;;13.00;43.98;97006.09;4855063;28;103052;-78
2021/03/14 02:24:15;;;;;;;;;0.25;0.00;;;;;13.00;43.02;97005.25;4857189;28;102693;-87
2021/03/14 02:26:45;;;;;;;;;0.00;0.00;;;;;13.00;43.87;97008.81;4838830;28;102864;-87
2021/03/14 02:29:16;;;;;;;;;0.00;0.00;;;;;12.98;43.18;97009.03;4855088;28;103816;-87
2021/03/14 02:31:44;;;;;;;;;0.00;0.00;;;;;12.98;43.22;97005.50;4853610;28;102894;-87
2021/03/14 02:34:15;;;;;;;;;0.50;0.50;;;;;12.97;43.26;97018.25;4842456;28;102834;-87
2021/03/14 02:36:43;;;;;;;;;0.75;0.75;;;;;12.97;43.94;97012.00;4853281;28;103325;-87
2021/03/14 02:39:12;;;;;;;;;0.00;0.00;;;;;12.96;43.04;97004.97;4838550;28;103105;-86
2021/03/14 02:41:40;;;;;;;;;1.00;1.00;;;;;12.97;43.27;97001.97;4862219;28;102922;-87
2021/03/14 02:44:08;;;;;;;;;0.00;0.00;;;;;12.98;43.15;97010.94;4848957;28;102723;-87
2021/03/14 02:46:34;;;;;;;;;0.00;0.00;;;;;12.97;43.66;97012.81;4846151;28;104253;-87
2021/03/14 02:49:01;;;;;;;;;0.75;0.00;;;;;12.95;43.72;97009.56;4843400;28;109571;-87
2021/03/14 02:51:29;;;;;;;;;1.00;1.00;;;;;12.95;43.32;97014.16;4852945;28;103539;-87
2021/03/14 02:53:55;;;;;;;;;0.00;0.00;;;;;12.95;43.35;97022.31;4845530;28;103047;-87
2021/03/14 02:56:22;;;;;;;;;0.00;0.00;;;;;12.94;43.63;97023.38;4855542;28;102654;-78
2021/03/14 02:58:50;;;;;;;;;0.00;0.00;;;;;12.95;43.16;97036.69;4858184;28;103332;-78
2021/03/14 03:01:16;;;;;;;;;0.25;0.00;;;;;12.92;43.40;97025.53;4860776;28;103003;-78
2021/03/14 03:03:44;;;;;;;;;0.00;0.00;;;;;12.95;43.42;97031.28;4853947;28;103572;-78
2021/03/14 03:06:10;;;;;;;;;0.00;0.00;;;;;12.95;43.62;97028.56;4846261;28;102946;-78
2021/03/14 03:08:37;;;;;;;;;1.00;0.00;;;;;12.94;43.74;97026.09;4843003;28;104422;-78
2021/03/14 03:11:07;;;;;;;;;0.75;0.00;;;;;12.90;43.12;97038.53;4869278;28;102934;-78
2021/03/14 03:13:35;;;;;;;;;0.75;0.00;;;;;12.93;43.40;97029.88;4865121;28;102846;-78
2021/03/14 03:16:03;;;;;;;;;0.00;0.00;;;;;12.93;43.20;97038.00;4861964;28;102836;-78
2021/03/14 03:18:30;;;;;;;;;0.50;0.00;;;;;12.93;43.99;97043.44;4865547;28;110468;-78
2021/03/14 03:20:57;;;;;;;;;1.00;0.50;;;;;12.92;43.85;97036.38;4844899;28;104563;-78
2021/03/14 03:23:24;;;;;;;;;0.00;0.00;;;;;12.91;43.97;97040.16;4851334;28;102904;-78
2021/03/14 03:25:50;;;;;;;;;0.00;0.00;;;;;12.90;43.44;97041.22;4856397;28;103329;-78
2021/03/14 03:28:17;;;;;;;;;1.00;0.50;;;;;12.90;44.15;97047.47;4857731;28;104270;-78
2021/03/14 03:30:44;;;;;;;;;0.00;0.00;;;;;12.92;43.17;97036.38;4866169;28;102850;-78
2021/03/14 03:33:11;;;;;;;;;0.00;0.00;;;;;12.91;43.27;97034.75;4860461;28;102851;-78
2021/03/14 03:35:38;;;;;;;;;0.00;0.00;;;;;12.90;43.19;97033.91;4867175;28;102893;-78
2021/03/14 03:38:04;;;;;;;;;0.00;0.00;;;;;12.89;43.39;97039.59;4864481;28;103996;-77
2021/03/14 03:40:32;;;;;;;;;0.00;0.00;;;;;12.88;43.50;97029.81;4858914;28;102723;-78
2021/03/14 03:43:05;;;;;;;;;0.00;0.00;;;;;12.88;44.20;97029.81;4842191;28;102804;-78
2021/03/14 03:45:36;;;;;;;;;0.00;0.00;;;;;12.87;43.86;97030.91;4868293;28;102934;-78
2021/03/14 03:48:04;;;;;;;;;0.00;0.00;;;;;12.85;43.61;97033.03;4860789;28;108535;-78
2021/03/14 03:50:46;;;;;;;;;0.00;0.00;;;;;12.86;43.27;97034.69;4759545;28;102915;-78
2021/03/14 03:53:13;;;;;;;;;0.00;0.00;;;;;12.86;44.01;97031.97;4859281;28;103704;-77
2021/03/14 03:55:40;;;;;;;;;0.25;0.25;;;;;12.84;43.91;97031.38;4865446;28;103048;-87
2021/03/14 03:58:06;;;;;;;;;1.00;0.00;;;;;12.86;44.26;97032.78;4855826;28;104018;-86
2021/03/14 04:00:33;;;;;;;;;0.75;0.00;;;;;12.84;43.17;97017.81;4868219;28;103229;-87
2021/03/14 04:03:00;;;;;;;;;0.25;0.00;;;;;12.84;43.69;97028.69;4860989;28;105662;-87
2021/03/14 04:05:27;;;;;;;;;1.00;0.00;;;;;12.84;43.06;97032.22;4866741;28;102919;-87
2021/03/14 04:07:54;;;;;;;;;0.00;0.00;;;;;12.83;43.25;97037.91;4844505;28;104015;-87
2021/03/14 04:10:22;;;;;;;;;0.00;0.00;;;;;12.84;43.73;97039.53;4861889;28;102887;-87
2021/03/14 04:12:49;;;;;;;;;0.25;0.25;;;;;12.82;43.86;97037.09;4866103;28;103083;-87
2021/03/14 04:15:19;;;;;;;;;0.00;0.00;;;;;12.84;43.77;97040.34;4871319;28;104630;-87
2021/03/14 04:17:45;;;;;;;;;0.00;0.00;;;;;12.84;43.89;97044.94;4862501;28;103901;-87
2021/03/14 04:20:18;;;;;;;;;0.00;0.00;;;;;12.80;43.36;97043.81;4873702;28;103480;-87
2021/03/14 04:22:47;;;;;;;;;0.00;0.00;;;;;12.82;43.56;97049.81;4867816;28;103030;-87
2021/03/14 04:25:14;;;;;;;;;0.00;0.00;;;;;12.81;43.54;97048.19;4866185;28;102848;-78
2021/03/14 04:27:41;;;;;;;;;0.00;0.00;;;;;12.82;43.18;97050.66;4868651;28;105313;-79
2021/03/14 04:30:09;;;;;;;;;0.00;0.00;;;;;12.83;43.28;97048.75;4868252;28;102779;-78
2021/03/14 04:32:35;;;;;;;;;0.00;0.00;;;;;12.82;43.49;97047.94;4864647;28;102788;-78
2021/03/14 04:35:07;;;;;;;;;0.00;0.00;;;;;12.81;43.48;97038.16;4868246;28;102869;-78
2021/03/14 04:37:34;;;;;;;;;1.50;0.00;;;;;12.80;43.50;97030.25;4866761;28;109901;-78
2021/03/14 04:40:01;;;;;;;;;0.00;0.00;;;;;12.80;44.23;97027.53;4844084;28;102939;-78
2021/03/14 04:42:28;;;;;;;;;0.00;0.00;;;;;12.80;44.26;97028.38;4841851;28;102974;-78
2021/03/14 04:44:54;;;;;;;;;0.00;0.00;;;;;12.80;43.39;97033.78;4859541;28;103103;-78
2021/03/14 04:47:22;;;;;;;;;0.00;0.00;;;;;12.80;43.78;97036.50;4857983;28;104381;-78
2021/03/14 04:49:48;;;;;;;;;0.50;0.00;;;;;12.78;43.64;97030.53;4862204;28;102885;-77
2021/03/14 04:52:18;;;;;;;;;0.00;0.00;;;;;12.79;44.00;97021.31;4856703;28;102931;-78
2021/03/14 04:54:47;;;;;;;;;0.75;0.00;;;;;12.80;43.26;97027.53;4847038;28;103025;-78
2021/03/14 04:57:15;;;;;;;;;0.25;0.00;;;;;12.80;43.54;97022.13;4855476;28;105003;-78
2021/03/14 04:59:43;;;;;;;;;0.00;0.00;;;;;12.77;43.63;97026.19;4852377;28;102888;-78
2021/03/14 05:02:11;;;;;;;;;0.00;0.00;;;;;12.78;44.19;97041.38;4861856;28;102686;-78
2021/03/14 05:04:38;;;;;;;;;0.00;0.00;;;;;12.78;43.92;97030.53;4870813;28;105423;-78
2021/03/14 05:07:05;;;;;;;;;0.00;0.00;;;;;12.78;43.67;97033.25;4866485;28;104066;-78
2021/03/14 05:09:32;;;;;;;;;0.00;0.00;;;;;12.77;43.89;97030.78;4848139;28;102865;-78
2021/03/14 05:11:59;;;;;;;;;0.00;0.00;;;;;12.77;43.46;97039.75;4850645;28;102836;-78
2021/03/14 05:14:26;;;;;;;;;0.00;0.00;;;;;12.76;43.62;97032.66;4860662;28;105295;-78
2021/03/14 05:16:52;;;;;;;;;0.25;0.00;;;;;12.76;43.95;97026.41;4859800;28;103859;-78
2021/03/14 05:19:19;;;;;;;;;0.00;0.00;;;;;12.76;44.01;97019.09;4874638;28;103399;-78
2021/03/14 05:21:57;;;;;;;;;0.00;0.00;;;;;12.76;43.92;97027.25;4862924;28;102872;-78
2021/03/14 05:24:24;;;;;;;;;0.00;0.00;;;;;12.76;44.17;97013.69;4860418;28;103013;-78
2021/03/14 05:26:51;;;;;;;;;0.00;0.00;;;;;12.76;43.57;97012.84;4875066;28;103997;-78
2021/03/14 05:29:18;;;;;;;;;0.00;0.00;;;;;12.75;43.66;97019.34;4856615;28;102814;-78
2021/03/14 05:31:44;;;;;;;;;0.00;0.00;;;;;12.74;44.05;96990.59;4861136;28;102841;-78
2021/03/14 05:34:15;;;;;;;;;0.00;0.00;;;;;12.74;43.23;97012.31;4872466;28;103082;-78
2021/03/14 05:36:42;;;;;;;;;0.00;0.00;;;;;12.74;44.10;97004.97;4860802;28;104272;-78
2021/03/14 05:39:09;;;;;;;;;0.00;0.00;;;;;12.74;43.44;97013.09;4868301;28;102724;-78
2021/03/14 05:41:38;;;;;;;;;0.00;0.00;;;;;12.75;43.36;97003.91;4871133;28;102834;-78
2021/03/14 05:44:06;;;;;;;;;0.00;0.00;;;;;12.74;43.61;97001.47;4855756;28;102749;-78
2021/03/14 05:46:32;;;;;;;;;0.00;0.00;;;;;12.74;43.70;97001.47;4864102;28;104530;-78
2021/03/14 05:48:59;;;;;;;;;0.00;0.00;;;;;12.73;43.62;97003.34;4863301;28;104775;-78
2021/03/14 05:51:28;;;;;;;;;0.00;0.00;;;;;12.71;43.64;97010.91;4856860;28;103892;-78
2021/03/14 05:53:56;;;;;;;;;0.00;0.00;;;;;12.71;44.34;97002.78;4862295;28;104543;-78
2021/03/14 05:56:23;;;;;;;;;0.00;0.00;;;;;12.72;43.43;97009.84;4864729;28;103936;-87
2021/03/14 05:58:50;;;;;;;;;0.00;0.00;;;;;12.72;43.45;97009.00;4854282;28;103515;-87
2021/03/14 06:01:18;;;;;;;;;0.00;0.00;;;;;12.73;43.86;97010.66;4870453;28;102867;-87
2021/03/14 06:03:45;;;;;;;;;1.00;0.00;;;;;12.72;43.94;97001.69;4863914;28;103417;-87
2021/03/14 06:06:14;;;;;;;;;0.00;0.00;;;;;12.72;43.48;97011.72;4852707;28;104064;-87
2021/03/14 06:08:42;;;;;;;;;0.00;0.00;;;;;12.71;43.60;97005.47;4858851;28;103818;-87
2021/03/14 06:11:11;;;;;;;;;0.00;0.00;;;;;12.71;43.94;97012.78;4853669;28;102905;-86
2021/03/14 06:13:38;;;;;;;;;0.00;0.00;;;;;12.71;44.26;97020.94;4868231;28;103322;-87
2021/03/14 06:16:05;;;;;;;;;0.00;0.00;;;;;12.71;44.19;97021.75;4871994;28;108754;-87
2021/03/14 06:18:32;;;;;;;;;1.00;0.50;;;;;12.72;44.33;97039.66;4862662;28;102930;-87
2021/03/14 06:20:58;;;;;;;;;0.00;0.00;;;;;12.72;43.54;97036.13;4860954;28;111496;-87
2021/03/14 06:23:25;;;;;;;;;0.00;0.00;;;;;12.72;43.40;97038.84;4865968;28;102715;-87
2021/03/14 06:25:53;;;;;;;;;0.25;0.00;;;;;12.71;43.41;97045.34;4863125;28;104047;-87
2021/03/14 06:28:38;;;;;;;;;0.00;0.00;;;;;12.70;43.55;97049.16;4864436;28;102967;-87
2021/03/14 06:31:25;;;;;;;;;0.00;0.00;;;;;12.69;43.66;97047.50;4862351;28;103036;-87
2021/03/14 06:33:52;;;;;;;;;0.00;0.00;;;;;12.70;43.98;97060.00;4806857;28;103028;-87
2021/03/14 06:36:19;;;;;;;;;0.00;0.00;;;;;12.69;43.75;97056.47;4862601;28;104582;-87
2021/03/14 06:38:47;;;;;;;;;0.50;0.50;;;;;12.69;43.52;97042.91;4857570;28;102918;-87
2021/03/14 06:41:20;;;;;;;;;0.00;0.00;;;;;12.69;43.87;97033.94;4861461;28;106746;-87
2021/03/14 06:43:50;;;;;;;;;0.00;0.00;;;;;12.68;43.83;97038.53;4853587;28;102760;-87
2021/03/14 06:46:31;;;;;;;;;0.00;0.00;;;;;12.68;43.58;97045.84;4867243;28;104036;-87
2021/03/14 06:49:16;;;;;;;;;0.00;0.00;;;;;12.68;43.28;97046.69;4865879;28;102779;-87
2021/03/14 06:51:47;;;;;;;;;0.00;0.00;;;;;12.69;43.46;97047.50;4846459;28;103023;-87
2021/03/14 06:54:26;;;;;;;;;0.00;0.00;;;;;12.69;44.15;97055.63;4870259;28;103075;-87
2021/03/14 06:57:00;;;;;;;;;0.00;0.00;;;;;12.69;43.47;97052.91;4870129;28;103874;-87
2021/03/14 06:59:27;;;;;;;;;0.00;0.00;;;;;12.70;43.57;97060.00;4850948;28;102814;-87
2021/03/14 07:02:00;;;;;;;;;0.50;0.00;;;;;12.68;43.47;97062.94;4865228;28;102752;-87
2021/03/14 07:04:34;;;;;;;;;0.00;0.00;;;;;12.69;43.82;97066.47;4869753;28;102761;-87
2021/03/14 07:07:01;;;;;;;;;0.00;0.00;;;;;12.69;43.38;97075.44;4861105;28;104332;-87
2021/03/14 07:09:27;;;;;;;;;0.25;0.00;;;;;12.69;43.52;97070.03;4864075;28;102793;-87
2021/03/14 07:11:54;;;;;;;;;0.00;0.00;;;;;12.69;43.87;97059.16;4862647;28;105227;-87
2021/03/14 07:14:21;;;;;;;;;0.00;0.00;;;;;12.69;43.41;97067.31;4856004;28;102855;-87
2021/03/14 07:16:49;;;;;;;;;0.00;0.00;;;;;12.69;44.21;97069.19;4857599;28;103777;-87
2021/03/14 07:19:20;;;;;;;;;0.00;0.00;;;;;12.69;43.52;97075.44;4852070;28;102765;-87
2021/03/14 07:22:06;;;;;;;;;1.00;0.00;;;;;12.69;43.85;97085.47;4855570;28;103074;-87
2021/03/14 07:24:45;;;;;;;;;0.00;0.00;;;;;12.69;43.92;97085.47;4869202;28;102931;-87
2021/03/14 07:27:25;;;;;;;;;0.75;0.00;;;;;12.70;43.97;97093.31;4861668;28;109426;-87
2021/03/14 07:29:53;;;;;;;;;0.00;0.00;;;;;12.70;44.01;97089.81;4861090;28;102808;-87
2021/03/14 07:32:21;;;;;;;;;1.00;0.00;;;;;12.70;43.36;97090.63;4858265;28;103626;-87
2021/03/14 07:34:48;;;;;;;;;0.00;0.00;;;;;12.70;43.76;97093.31;4874403;28;102927;-86
2021/03/14 07:37:15;;;;;;;;;0.00;0.00;;;;;12.71;43.81;97092.25;4863066;28;104914;-87
2021/03/14 07:39:42;;;;;;;;;1.00;0.00;;;;;12.70;43.34;97098.75;4864708;28;102950;-86
2021/03/14 07:42:10;;;;;;;;;0.00;0.00;;;;;12.72;43.75;97095.81;4870574;28;102931;-87
2021/03/14 07:44:36;;;;;;;;;0.00;0.00;;;;;12.70;43.75;97104.19;4861845;28;105079;-87
2021/03/14 07:47:03;;;;;;;;;0.00;0.00;;;;;12.72;44.04;97101.22;4861385;28;103938;-87
2021/03/14 07:49:30;;;;;;;;;0.00;0.00;;;;;12.70;43.86;97100.66;4856388;28;102948;-87
2021/03/14 07:51:59;;;;;;;;;1.75;0.00;;;;;12.72;44.09;97102.03;4853739;28;102763;-87
2021/03/14 07:54:44;;;;;;;;;0.00;0.00;;;;;12.73;43.27;97108.28;4863098;28;102761;-87
2021/03/14 07:57:11;;;;;;;;;1.00;0.00;;;;;12.73;43.94;97111.84;4869143;28;108724;-87
2021/03/14 07:59:38;;;;;;;;;0.00;0.00;;;;;12.72;43.97;97107.47;4844256;28;102817;-87
2021/03/14 08:02:16;;;;;;;;;0.00;0.00;;;;;12.75;43.47;97111.56;4860528;28;106652;-87
2021/03/14 08:04:47;;;;;;;;;0.00;0.00;;;;;12.75;43.38;97106.13;4871246;28;102872;-87
2021/03/14 08:07:14;;;;;;;;;0.00;0.00;;;;;12.75;43.45;97116.97;4868767;28;103855;-87
2021/03/14 08:09:44;;;;;;;;;0.00;0.00;;;;;12.74;43.92;97121.59;4868350;28;102878;-87
2021/03/14 08:12:24;;;;;;;;;0.00;0.00;;;;;12.75;43.08;97128.66;4872946;28;102694;-87
2021/03/14 08:14:55;;;;;;;;;1.00;0.00;;;;;12.75;43.06;97134.09;4866300;28;102975;-87
2021/03/14 08:17:24;;;;;;;;;0.00;0.00;;;;;12.78;43.06;97149.06;4870044;28;104346;-87
2021/03/14 08:19:52;;;;;;;;;0.00;0.00;;;;;12.78;43.50;97149.06;4876997;28;102836;-87
2021/03/14 08:22:37;;;;;;;;;0.00;0.00;;;;;12.77;43.32;97158.25;4860142;28;105288;-87
2021/03/14 08:25:18;;;;;;;;;0.00;0.00;;;;;12.77;43.48;97164.50;4864111;28;102970;-87
2021/03/14 08:27:47;;;;;;;;;0.00;0.00;;;;;12.77;43.96;97167.22;4848722;28;108710;-87
2021/03/14 08:30:29;;;;;;;;;0.00;0.00;;;;;12.78;43.15;97165.31;4863136;28;103397;-87
2021/03/14 08:33:20;;;;;;;;;0.00;0.00;;;;;12.77;43.89;97180.78;4863755;28;102814;-87
2021/03/14 08:35:50;;;;;;;;;0.00;0.00;;;;;12.77;43.32;97182.66;4779637;28;103156;-86
2021/03/14 08:38:22;;;;;;;;;0.00;0.00;;;;;12.77;43.85;97179.94;4861091;28;104381;-87
2021/03/14 08:40:49;;;;;;;;;0.00;0.00;;;;;12.78;43.33;97181.59;4854782;28;103017;-87
2021/03/14 08:43:41;;;;;;;;;0.00;0.00;;;;;12.78;43.23;97187.03;4867993;28;104903;-86
2021/03/14 08:46:08;;;;;;;;;0.00;0.00;;;;;12.77;43.02;97193.50;4862490;28;102767;-87
2021/03/14 08:48:35;;;;;;;;;0.00;0.00;;;;;12.73;43.74;97179.63;4863248;28;104447;-87
2021/03/14 08:51:06;;;;;;;;;0.00;0.00;;;;;12.77;43.76;97179.94;4856608;28;102833;-87
2021/03/14 08:53:34;;;;;;;;;0.00;0.00;;;;;12.76;43.88;97181.00;4843645;28;103793;-87
2021/03/14 08:56:01;;;;;;;;;0.00;0.00;;;;;12.75;43.48;97185.63;4862441;28;102899;-87
2021/03/14 08:58:28;;;;;;;;;0.00;0.00;;;;;12.78;43.58;97189.72;4868472;28;104315;-87
2021/03/14 09:01:05;;;;;;;;;0.00;0.00;;;;;12.79;43.37;97188.63;4871158;28;103695;-87
2021/03/14 09:03:39;;;;;;;;;0.00;0.00;;;;;12.78;43.55;97189.72;4862526;28;102722;-87
2021/03/14 09:06:28;;;;;;;;;0.00;0.00;;;;;12.79;43.40;97199.50;4869443;28;102868;-87
2021/03/14 09:08:59;;;;;;;;;0.00;0.00;;;;;12.79;43.66;97199.50;4808048;28;108556;-87
2021/03/14 09:11:40;;;;;;;;;1.00;0.00;;;;;12.79;43.91;97199.50;4864289;28;105610;-87
2021/03/14 09:14:32;;;;;;;;;1.00;0.00;;;;;12.80;43.09;97201.13;4861810;28;102655;-87
2021/03/14 09:17:10;;;;;;;;;0.00;0.00;;;;;12.79;43.69;97199.50;4870210;28;102712;-87
2021/03/14 09:19:48;;;;;;;;;0.00;0.00;;;;;12.79;43.78;97200.31;4869061;28;108711;-87
2021/03/14 09:22:25;;;;;;;;;0.00;0.00;;;;;12.79;43.77;97199.50;4858458;28;102938;-87
2021/03/14 09:25:02;;;;;;;;;0.00;0.00;;;;;12.78;43.01;97197.88;4859296;28;102909;-87
2021/03/14 09:27:31;;;;;;;;;0.00;0.00;;;;;12.79;43.59;97189.47;4874615;28;105198;-87
2021/03/14 09:30:01;;;;;;;;;0.25;0.00;;;;;12.79;43.71;97183.22;4859930;28;103944;-87
2021/03/14 09:32:49;;;;;;;;;0.00;0.00;;;;;12.80;43.95;97187.56;4863998;28;102769;-87
2021/03/14 09:35:28;;;;;;;;;0.75;0.00;;;;;12.80;43.92;97195.72;4804144;28;102661;-87
2021/03/14 09:38:08;;;;;;;;;0.00;0.00;;;;;12.81;43.94;97189.22;4864456;28;102788;-87
2021/03/14 09:40:38;;;;;;;;;0.00;0.00;;;;;12.80;43.43;97169.41;4861144;28;104230;-87
2021/03/14 09:43:12;;;;;;;;;0.00;0.00;;;;;12.82;43.24;97177.31;4867704;28;102819;-87
2021/03/14 09:45:41;;;;;;;;;0.00;0.00;;;;;12.81;44.00;97175.66;4862286;28;102847;-87
2021/03/14 09:48:23;;;;;;;;;1.00;0.00;;;;;12.82;43.54;97174.59;4859367;28;102915;-87
2021/03/14 09:50:54;;;;;;;;;0.00;0.00;;;;;12.82;43.18;97178.13;4804456;28;108980;-87
2021/03/14 09:53:28;;;;;;;;;0.00;0.00;;;;;12.83;43.85;97182.47;4859505;28;102458;-87
2021/03/14 09:55:59;;;;;;;;;0.00;0.00;;;;;12.84;44.04;97183.28;4859684;28;102841;-87
2021/03/14 09:58:26;;;;;;;;;0.00;0.00;;;;;12.84;43.62;97186.00;4860241;28;102974;-87
2021/03/14 10:00:55;;;;;;;;;0.00;0.00;;;;;12.87;43.79;97209.94;4868351;28;103928;-87
2021/03/14 10:03:23;;;;;;;;;0.00;0.00;;;;;12.85;43.27;97209.34;4862741;28;102894;-87
2021/03/14 10:05:54;;;;;;;;;0.00;0.00;;;;;12.86;43.14;97216.44;4863793;28;102889;-78
2021/03/14 10:08:22;;;;;;;;;0.00;0.00;;;;;12.87;43.99;97231.66;4870508;28;102782;-78
2021/03/14 10:10:50;;;;;;;;;0.00;0.00;;;;;12.86;43.75;97225.41;4857654;28;103979;-78
2021/03/14 10:13:20;;;;;;;;;0.75;0.00;;;;;12.87;44.31;97232.47;4862100;28;102745;-78
2021/03/14 10:15:51;;;;;;;;;0.00;0.00;;;;;12.88;44.29;97235.97;4859746;28;102861;-78
2021/03/14 10:18:19;;;;;;;;;0.00;0.00;;;;;12.86;43.21;97235.41;4856306;28;103020;-78
2021/03/14 10:20:46;;;;;;;;;0.25;0.00;;;;;12.88;43.38;97236.81;4864205;28;104052;-78
2021/03/14 10:23:14;;;;;;;;;0.00;0.00;;;;;12.88;44.17;97241.41;4858885;28;105478;-78
2021/03/14 10:25:40;;;;;;;;;0.00;0.00;;;;;12.89;43.55;97237.63;4867602;28;102770;-78
2021/03/14 10:28:17;;;;;;;;;0.00;0.00;;;;;12.90;43.11;97239.28;4868629;28;102917;-77
2021/03/14 10:30:48;;;;;;;;;0.00;0.00;;;;;12.89;44.00;97243.03;4862910;28;108972;-78
2021/03/14 10:33:16;;;;;;;;;0.00;0.00;;;;;12.89;43.06;97248.47;4860669;28;102828;-78
2021/03/14 10:35:43;;;;;;;;;1.00;0.00;;;;;12.82;43.31;97231.56;4871800;28;102858;-87
2021/03/14 10:38:17;;;;;;;;;0.00;0.00;;;;;12.90;43.08;97244.69;4871527;28;102642;-87
2021/03/14 10:40:44;;;;;;;;;0.00;0.00;;;;;12.90;43.88;97247.41;4860270;28;109212;-86
2021/03/14 10:43:21;;;;;;;;;0.00;0.00;;;;;12.90;43.40;97234.66;4871917;28;102705;-87
2021/03/14 10:45:48;;;;;;;;;0.00;0.00;;;;;12.91;44.10;97232.78;4857269;28;102792;-87
2021/03/14 10:48:15;;;;;;;;;0.25;0.00;;;;;12.93;43.64;97227.91;4859298;28;103994;-87
2021/03/14 10:50:41;;;;;;;;;1.00;0.00;;;;;12.92;43.39;97242.56;4869696;28;103990;-87
2021/03/14 10:53:18;;;;;;;;;0.00;0.00;;;;;12.94;43.48;97237.69;4854921;28;103161;-87
2021/03/14 10:56:08;;;;;;;;;0.00;0.00;;;;;12.93;44.15;97241.47;4806778;28;103432;-87
2021/03/14 10:58:42;;;;;;;;;0.00;0.00;;;;;12.93;43.41;97244.19;4859465;28;104961;-87
2021/03/14 11:01:14;;;;;;;;;0.75;0.75;;;;;12.94;44.00;97248.56;4871607;28;109038;-87
2021/03/14 11:03:42;;;;;;;;;0.00;0.00;;;;;12.93;43.99;97246.91;4860742;28;102826;-87
2021/03/14 11:06:21;;;;;;;;;0.00;0.00;;;;;12.92;43.98;97248.00;4864469;28;102888;-87
2021/03/14 11:09:03;;;;;;;;;0.00;0.00;;;;;12.93;43.45;97241.47;4860527;28;102985;-87
2021/03/14 11:11:46;;;;;;;;;0.00;0.00;;;;;12.94;43.09;97249.38;4861990;28;104199;-87
2021/03/14 11:14:36;;;;;;;;;0.00;0.00;;;;;12.95;44.06;97244.78;4858383;28;102791;-87
2021/03/14 11:17:06;;;;;;;;;1.00;0.25;;;;;12.95;43.78;97248.31;4807280;28;102948;-87
2021/03/14 11:19:38;;;;;;;;;0.00;0.00;;;;;12.97;43.29;97248.03;4866890;28;103704;-87
2021/03/14 11:22:05;;;;;;;;;0.00;0.00;;;;;12.96;43.64;97251.84;4866420;28;103185;-87
2021/03/14 11:24:32;;;;;;;;;0.00;0.00;;;;;12.97;43.64;97250.75;4865501;28;102860;-87
2021/03/14 11:26:59;;;;;;;;;1.00;0.00;;;;;12.96;43.86;97251.84;4862384;28;103041;-87
2021/03/14 11:29:26;;;;;;;;;1.00;0.00;;;;;12.96;43.98;97241.00;4861110;28;103815;-87
2021/03/14 11:31:53;;;;;;;;;1.00;0.00;;;;;12.97;43.42;97245.34;4870708;28;103937;-87
2021/03/14 11:34:20;;;;;;;;;0.50;0.00;;;;;12.97;43.41;97254.28;4859965;28;103492;-86
2021/03/14 11:36:47;;;;;;;;;0.00;0.00;;;;;12.97;43.88;97248.88;4858037;28;105351;-86